createdAt,value
2019-03-20T00:44:46.598Z,16.00
2019-03-20T00:47:28.048Z,16.27
2019-03-20T00:50:00.363Z,16.13
2019-03-20T00:52:31.548Z,16.60
2019-03-20T00:55:03.711Z,14.43
2019-03-20T00:57:37.686Z,11.73
2019-03-20T01:00:17.813Z,12.70
2019-03-20T01:02:55.317Z,13.67
2019-03-20T01:05:25.568Z,21.20
2019-03-20T01:07:56.187Z,13.37
2019-03-20T01:10:26.949Z,20.73
2019-03-20T01:13:08.037Z,14.23
2019-03-20T01:15:38.154Z,16.00
2019-03-20T01:18:08.317Z,14.97
2019-03-20T01:20:38.674Z,13.80
2019-03-20T01:23:09.009Z,14.63
2019-03-20T01:25:39.570Z,14.20
2019-03-20T01:28:10.077Z,15.93
2019-03-20T01:30:40.214Z,16.13
2019-03-20T01:33:11.444Z,11.97
2019-03-20T01:35:41.606Z,18.97
2019-03-20T01:38:11.972Z,15.10
2019-03-20T01:40:42.034Z,16.00
2019-03-20T01:43:12.346Z,16.80
2019-03-20T01:45:42.684Z,14.73
2019-03-20T01:48:12.706Z,13.80
2019-03-20T01:50:42.583Z,14.80
2019-03-20T01:53:12.604Z,14.30
2019-03-20T01:55:42.443Z,12.03
2019-03-20T01:58:12.291Z,18.73
2019-03-20T02:00:42.152Z,12.77
2019-03-20T02:03:11.831Z,13.40
2019-03-20T02:05:41.691Z,13.47
2019-03-20T02:08:11.462Z,13.93
2019-03-20T02:10:41.301Z,12.93
2019-03-20T02:13:11.013Z,15.30
2019-03-20T02:15:40.827Z,15.27
2019-03-20T02:18:10.640Z,13.80
2019-03-20T02:20:40.474Z,14.23
2019-03-20T02:23:10.364Z,14.97
2019-03-20T02:25:40.075Z,13.90
2019-03-20T02:28:09.812Z,14.17
2019-03-20T02:30:39.572Z,14.87
2019-03-20T02:33:09.193Z,13.60
2019-03-20T02:35:50.614Z,14.17
2019-03-20T02:38:10.058Z,13.43
2019-03-20T02:40:39.790Z,15.23
2019-03-20T02:43:09.519Z,13.00
2019-03-20T02:45:39.208Z,14.63
2019-03-20T02:48:08.863Z,15.50
2019-03-20T02:50:38.529Z,16.40
2019-03-20T02:53:08.255Z,15.03
2019-03-20T02:55:37.951Z,13.93
2019-03-20T02:58:07.677Z,14.40
2019-03-20T03:00:37.371Z,16.07
2019-03-20T03:03:07.022Z,13.33
2019-03-20T03:05:36.819Z,16.57
2019-03-20T03:08:06.577Z,13.83
2019-03-20T03:10:36.468Z,11.53
2019-03-20T03:13:06.263Z,11.43
2019-03-20T03:15:36.265Z,12.93
2019-03-20T03:18:06.288Z,15.20
2019-03-20T03:20:36.221Z,14.07
2019-03-20T03:23:06.060Z,14.07
2019-03-20T03:25:36.080Z,14.47
2019-03-20T03:28:06.043Z,13.40
2019-03-20T03:30:35.872Z,12.83
2019-03-20T03:33:05.808Z,14.03
2019-03-20T03:35:35.735Z,13.13
2019-03-20T03:38:05.488Z,14.07
2019-03-20T03:40:35.758Z,12.40
2019-03-20T03:43:05.780Z,15.40
2019-03-20T03:45:35.647Z,20.37
2019-03-20T03:48:05.484Z,13.43
2019-03-20T03:50:35.404Z,15.43
2019-03-20T03:53:05.311Z,13.67
2019-03-20T03:55:35.300Z,15.87
2019-03-20T03:58:05.283Z,16.67
2019-03-20T04:00:35.402Z,13.23
2019-03-20T04:03:05.320Z,15.43
2019-03-20T04:05:35.307Z,13.37
2019-03-20T04:08:05.241Z,13.33
2019-03-20T04:10:35.098Z,15.97
2019-03-20T04:13:04.947Z,16.47
2019-03-20T04:15:36.411Z,13.23
2019-03-20T04:18:06.418Z,15.87
2019-03-20T04:20:36.334Z,13.03
2019-03-20T04:23:06.332Z,15.20
2019-03-20T04:25:36.176Z,13.97
2019-03-20T04:28:06.096Z,13.53
2019-03-20T04:30:35.991Z,16.73
2019-03-20T04:33:06.235Z,15.67
2019-03-20T04:35:36.102Z,13.47
2019-03-20T04:38:06.085Z,15.80
2019-03-20T04:40:36.139Z,14.03
2019-03-20T04:43:09.385Z,17.47
2019-03-20T04:45:41.758Z,15.17
2019-03-20T04:48:11.699Z,12.57
2019-03-20T04:50:41.526Z,15.43
2019-03-20T04:53:11.039Z,13.67
2019-03-20T04:55:43.431Z,10.63
2019-03-20T04:58:13.019Z,14.13
2019-03-20T05:00:42.656Z,19.17
2019-03-20T05:03:14.840Z,15.67
2019-03-20T05:06:08.179Z,15.30
2019-03-20T05:08:37.750Z,14.87
2019-03-20T05:11:07.884Z,17.57
2019-03-20T05:13:38.435Z,16.23
2019-03-20T05:16:08.942Z,15.70
2019-03-20T05:18:38.572Z,18.20
2019-03-20T05:21:07.959Z,15.83
2019-03-20T05:23:37.519Z,18.57
2019-03-20T05:26:07.328Z,14.67
2019-03-20T05:28:36.915Z,13.87
2019-03-20T05:31:06.507Z,14.33
2019-03-20T05:33:36.228Z,13.70
2019-03-20T05:36:06.912Z,14.57
2019-03-20T05:38:36.558Z,14.70
2019-03-20T05:41:06.077Z,14.67
2019-03-20T05:43:40.796Z,13.10
2019-03-20T05:46:10.339Z,16.87
2019-03-20T05:48:39.859Z,16.67
2019-03-20T05:51:09.432Z,15.97
2019-03-20T05:53:39.139Z,18.67
2019-03-20T05:56:09.087Z,16.60
2019-03-20T05:58:38.854Z,22.63
2019-03-20T06:01:09.036Z,18.23
2019-03-20T06:03:38.764Z,15.67
2019-03-20T06:06:08.656Z,21.53
2019-03-20T06:08:38.909Z,20.00
2019-03-20T06:11:08.359Z,21.43
2019-03-20T06:13:37.706Z,21.30
2019-03-20T06:16:07.138Z,16.67
2019-03-20T06:18:36.480Z,21.30
2019-03-20T06:21:05.865Z,17.53
2019-03-20T06:23:35.229Z,20.53
2019-03-20T06:26:04.606Z,19.50
2019-03-20T06:28:34.078Z,19.10
2019-03-20T06:31:03.473Z,21.40
2019-03-20T06:33:32.876Z,23.57
2019-03-20T06:36:02.270Z,24.97
2019-03-20T06:38:31.671Z,20.77
2019-03-20T06:41:01.135Z,26.17
2019-03-20T06:43:30.521Z,23.23
2019-03-20T06:46:00.032Z,17.77
2019-03-20T06:48:29.423Z,25.60
2019-03-20T06:50:58.826Z,20.50
2019-03-20T06:53:28.200Z,18.77
2019-03-20T06:55:57.648Z,22.37
2019-03-20T06:58:27.028Z,21.03
2019-03-20T07:01:25.134Z,23.17
2019-03-20T07:04:11.924Z,18.77
2019-03-20T07:06:54.879Z,16.53
2019-03-20T07:09:31.158Z,19.37
2019-03-20T07:12:00.540Z,21.80
2019-03-20T07:14:29.919Z,20.20
2019-03-20T07:16:59.239Z,21.70
2019-03-20T07:19:28.628Z,21.93
2019-03-20T07:21:57.964Z,19.10
2019-03-20T07:24:27.333Z,18.53
2019-03-20T07:26:56.661Z,16.67
2019-03-20T07:29:26.066Z,16.97
2019-03-20T07:31:55.747Z,18.13
2019-03-20T07:34:25.135Z,18.47
2019-03-20T07:36:54.524Z,15.73
2019-03-20T07:39:24.034Z,16.97
2019-03-20T07:41:53.360Z,15.70
2019-03-20T07:44:22.753Z,14.57
2019-03-20T07:46:52.093Z,16.70
2019-03-20T07:49:21.443Z,15.30
2019-03-20T07:51:50.851Z,15.17
2019-03-20T07:54:20.252Z,16.30
2019-03-20T07:56:49.621Z,17.53
2019-03-20T07:59:19.021Z,14.50
2019-03-20T08:01:48.474Z,18.20
2019-03-20T08:04:17.845Z,14.40
2019-03-20T08:06:47.241Z,14.10
2019-03-20T08:09:16.611Z,17.77
2019-03-20T08:11:46.057Z,16.50
2019-03-20T08:14:15.413Z,14.17
2019-03-20T08:16:44.789Z,14.93
2019-03-20T08:19:14.130Z,14.67
2019-03-20T08:21:43.509Z,13.37
2019-03-20T08:24:12.860Z,16.60
2019-03-20T08:26:42.272Z,16.70
2019-03-20T08:29:11.637Z,18.50
2019-03-20T08:31:41.014Z,14.50
2019-03-20T08:34:10.505Z,13.37
2019-03-20T08:36:39.925Z,14.93
2019-03-20T08:39:09.262Z,23.33
2019-03-20T08:41:38.664Z,15.17
2019-03-20T08:44:08.017Z,14.87
2019-03-20T08:46:37.404Z,20.33
2019-03-20T08:49:06.765Z,17.77
2019-03-20T08:51:36.161Z,13.53
2019-03-20T08:54:05.623Z,20.37
2019-03-20T08:56:35.046Z,18.23
2019-03-20T08:59:04.409Z,20.47
2019-03-20T09:01:33.828Z,21.47
2019-03-20T09:04:03.195Z,19.67
2019-03-20T09:06:32.568Z,17.30
2019-03-20T09:09:01.923Z,17.67
2019-03-20T09:11:31.279Z,18.23
2019-03-20T09:14:00.643Z,15.70
2019-03-20T09:16:30.074Z,15.07
2019-03-20T09:18:59.452Z,20.40
2019-03-20T09:21:28.950Z,22.63
2019-03-20T09:23:58.493Z,18.33
2019-03-20T09:26:27.931Z,22.33
2019-03-20T09:28:57.328Z,21.60
2019-03-20T09:31:26.904Z,17.97
2019-03-20T09:33:56.572Z,20.93
2019-03-20T09:36:26.089Z,21.87
2019-03-20T09:38:55.628Z,20.57
2019-03-20T09:41:27.041Z,21.10
2019-03-20T09:43:56.859Z,23.60
2019-03-20T09:46:26.554Z,21.37
2019-03-20T09:48:56.201Z,28.20
2019-03-20T09:51:25.631Z,20.37
2019-03-20T09:53:55.031Z,19.60
2019-03-20T09:56:24.471Z,22.30
2019-03-20T09:58:53.878Z,23.43
2019-03-20T10:01:23.317Z,20.90
2019-03-20T10:03:52.726Z,18.23
2019-03-20T10:06:22.096Z,23.50
2019-03-20T10:08:54.253Z,24.23
2019-03-20T10:11:22.564Z,19.80
2019-03-20T10:13:52.013Z,24.07
2019-03-20T10:16:21.479Z,22.73
2019-03-20T10:18:50.811Z,23.50
2019-03-20T10:21:20.196Z,24.00
2019-03-20T10:23:49.541Z,20.73
2019-03-20T10:26:18.924Z,23.40
2019-03-20T10:28:48.317Z,26.57
2019-03-20T10:31:17.719Z,22.20
2019-03-20T10:33:47.179Z,20.97
2019-03-20T10:36:16.644Z,23.03
2019-03-20T10:38:48.602Z,21.50
2019-03-20T10:41:17.163Z,18.00
2019-03-20T10:43:46.514Z,22.20
2019-03-20T10:46:15.930Z,20.47
2019-03-20T10:48:45.332Z,14.83
2019-03-20T10:51:14.713Z,20.30
2019-03-20T10:53:44.157Z,16.20
2019-03-20T10:56:13.573Z,17.43
2019-03-20T10:58:43.018Z,16.30
2019-03-20T11:01:12.424Z,14.73
2019-03-20T11:03:41.774Z,16.50
2019-03-20T11:06:11.147Z,14.93
2019-03-20T11:08:40.500Z,15.03
2019-03-20T11:11:09.900Z,17.17
2019-03-20T11:13:39.309Z,15.70
2019-03-20T11:16:08.705Z,15.03
2019-03-20T11:18:38.094Z,12.93
2019-03-20T11:21:07.504Z,14.60
2019-03-20T11:23:36.914Z,13.20
2019-03-20T11:26:06.285Z,17.27
2019-03-20T11:28:35.701Z,18.53
2019-03-20T11:31:05.325Z,12.23
2019-03-20T11:33:34.700Z,13.90
2019-03-20T11:36:04.058Z,14.60
2019-03-20T11:38:33.464Z,17.70
2019-03-20T11:41:02.851Z,14.07
2019-03-20T11:43:32.249Z,11.53
2019-03-20T11:46:01.641Z,13.50
2019-03-20T11:48:33.338Z,9.50
2019-03-20T11:51:02.346Z,12.23
2019-03-20T11:53:31.740Z,11.87
2019-03-20T11:56:01.117Z,12.10
2019-03-20T11:58:30.520Z,12.80
2019-03-20T12:00:59.885Z,12.63
2019-03-20T12:03:29.287Z,14.07
2019-03-20T12:05:58.652Z,15.93
2019-03-20T12:08:28.092Z,10.77
2019-03-20T12:10:58.631Z,12.97
2019-03-20T12:13:28.190Z,11.97
2019-03-20T12:15:57.597Z,11.00
2019-03-20T12:18:26.995Z,11.33
2019-03-20T12:20:56.423Z,12.80
2019-03-20T12:23:25.784Z,9.60
2019-03-20T12:25:59.470Z,12.77
2019-03-20T12:28:34.014Z,10.57
2019-03-20T12:31:03.339Z,8.53
2019-03-20T12:33:32.722Z,14.23
2019-03-20T12:36:02.152Z,11.60
2019-03-20T12:38:31.766Z,14.17
2019-03-20T12:41:11.430Z,13.83
2019-03-20T12:43:40.918Z,10.30
2019-03-20T12:46:10.459Z,8.40
2019-03-20T12:48:39.941Z,11.47
2019-03-20T12:51:09.468Z,11.30
2019-03-20T12:53:39.062Z,11.97
2019-03-20T12:56:08.521Z,10.63
2019-03-20T12:58:37.947Z,10.47
2019-03-20T13:01:07.458Z,11.33
2019-03-20T13:03:36.856Z,10.50
2019-03-20T13:06:06.403Z,12.00
2019-03-20T13:08:35.804Z,11.57
2019-03-20T13:11:05.467Z,9.93
2019-03-20T13:13:34.858Z,10.87
2019-03-20T13:16:04.372Z,13.13
2019-03-20T13:18:33.745Z,12.73
2019-03-20T13:21:03.218Z,15.63
2019-03-20T13:23:33.036Z,11.20
2019-03-20T13:26:02.470Z,10.23
2019-03-20T13:28:31.830Z,13.50
2019-03-20T13:31:04.400Z,9.80
2019-03-20T13:33:33.783Z,18.77
2019-03-20T13:36:03.257Z,13.40
2019-03-20T13:38:32.754Z,9.50
2019-03-20T13:41:02.157Z,12.70
2019-03-20T13:43:31.662Z,12.03
2019-03-20T13:46:01.137Z,15.30
2019-03-20T13:48:30.617Z,16.53
2019-03-20T13:51:00.039Z,15.83
2019-03-20T13:53:29.449Z,12.60
2019-03-20T13:55:58.854Z,17.83
2019-03-20T13:58:28.320Z,13.80
2019-03-20T14:00:57.683Z,16.43
2019-03-20T14:03:27.186Z,13.00
2019-03-20T14:06:03.951Z,16.97
2019-03-20T14:08:33.403Z,14.20
2019-03-20T14:11:02.807Z,14.33
2019-03-20T14:13:32.368Z,16.63
2019-03-20T14:16:01.714Z,14.07
2019-03-20T14:18:31.120Z,10.97
2019-03-20T14:21:00.491Z,14.97
2019-03-20T14:23:29.919Z,15.97
2019-03-20T14:25:59.324Z,18.87
2019-03-20T14:28:28.744Z,12.80
2019-03-20T14:30:58.093Z,16.30
2019-03-20T14:33:27.527Z,12.87
2019-03-20T14:35:56.884Z,12.70
2019-03-20T14:38:26.279Z,11.73
2019-03-20T14:40:55.722Z,13.00
2019-03-20T14:43:25.106Z,10.93
2019-03-20T14:45:54.473Z,12.40
2019-03-20T14:48:23.875Z,14.23
2019-03-20T14:50:53.270Z,12.03
2019-03-20T14:53:22.733Z,13.07
2019-03-20T14:55:52.183Z,11.73
2019-03-20T14:58:21.617Z,13.70
2019-03-20T15:00:50.978Z,14.80
2019-03-20T15:03:20.363Z,13.60
2019-03-20T15:05:49.853Z,13.10
2019-03-20T15:08:19.245Z,10.60
2019-03-20T15:10:48.623Z,15.47
2019-03-20T15:13:18.031Z,14.27
2019-03-20T15:15:50.986Z,15.40
2019-03-20T15:18:20.355Z,12.30
2019-03-20T15:20:49.773Z,13.60
2019-03-20T15:23:19.160Z,13.83
2019-03-20T15:25:48.553Z,11.67
2019-03-20T15:28:17.954Z,9.40
2019-03-20T15:30:47.318Z,11.60
2019-03-20T15:33:16.705Z,11.63
2019-03-20T15:35:46.186Z,13.63
2019-03-20T15:38:15.581Z,17.10
2019-03-20T15:40:44.939Z,11.33
2019-03-20T15:43:15.639Z,10.83
2019-03-20T15:45:45.083Z,12.93
2019-03-20T15:48:14.493Z,11.83
2019-03-20T15:50:43.902Z,12.03
2019-03-20T15:53:13.309Z,9.67
2019-03-20T15:55:42.729Z,14.87
2019-03-20T15:58:12.180Z,10.17
2019-03-20T16:00:41.574Z,12.87
2019-03-20T16:03:13.397Z,15.70
2019-03-20T16:05:42.871Z,13.60
2019-03-20T16:08:12.373Z,14.57
2019-03-20T16:10:41.734Z,14.23
2019-03-20T16:13:11.163Z,14.37
2019-03-20T16:15:40.613Z,12.90
2019-03-20T16:18:10.186Z,11.90
2019-03-20T16:20:39.578Z,13.17
2019-03-20T16:23:08.952Z,13.13
2019-03-20T16:25:38.358Z,14.73
2019-03-20T16:28:07.756Z,11.67
2019-03-20T16:30:37.188Z,13.13
2019-03-20T16:33:06.540Z,13.20
2019-03-20T16:35:35.971Z,12.80
2019-03-20T16:38:07.046Z,11.77
2019-03-20T16:40:36.696Z,11.20
2019-03-20T16:43:06.274Z,11.20
2019-03-20T16:45:35.676Z,12.00
2019-03-20T16:48:05.449Z,13.77
2019-03-20T16:50:34.975Z,11.50
2019-03-20T16:53:04.608Z,11.73
2019-03-20T16:55:34.016Z,16.40
2019-03-20T16:58:03.433Z,12.60
2019-03-20T17:00:33.160Z,14.80
2019-03-20T17:03:02.679Z,17.83
2019-03-20T17:05:32.947Z,16.27
2019-03-20T17:08:02.503Z,14.47
2019-03-20T17:10:34.334Z,18.23
2019-03-20T17:13:04.272Z,13.63
2019-03-20T17:15:33.787Z,13.80
2019-03-20T17:18:03.257Z,14.80
2019-03-20T17:20:32.810Z,13.03
2019-03-20T17:23:02.297Z,12.10
2019-03-20T17:25:31.752Z,21.70
2019-03-20T17:28:01.158Z,18.33
2019-03-20T17:30:32.805Z,15.32
2019-03-20T17:33:02.490Z,15.87
2019-03-20T17:35:32.098Z,15.10
2019-03-20T17:38:01.732Z,20.53
2019-03-20T17:40:31.421Z,13.13
2019-03-20T17:43:01.086Z,13.27
2019-03-20T17:45:31.250Z,15.37
2019-03-20T17:48:00.825Z,13.27
2019-03-20T17:50:30.401Z,15.37
2019-03-20T17:53:00.022Z,11.40
2019-03-20T17:55:30.132Z,14.33
2019-03-20T17:58:01.186Z,14.80
2019-03-20T18:00:44.993Z,20.90
2019-03-20T18:03:20.361Z,19.67
2019-03-20T18:05:49.865Z,20.73
2019-03-20T18:08:19.630Z,22.17
2019-03-20T18:10:49.736Z,23.53
2019-03-20T18:13:19.691Z,27.47
2019-03-20T18:15:49.520Z,22.07
2019-03-20T18:18:19.696Z,19.33
2019-03-20T18:20:49.416Z,17.27
2019-03-20T18:23:22.992Z,16.97
2019-03-20T18:25:54.001Z,18.63
2019-03-20T18:31:23.155Z,18.50
2019-03-20T18:34:03.814Z,17.13
2019-03-20T18:36:39.444Z,18.50
2019-03-20T18:39:09.687Z,18.20
2019-03-20T18:41:39.624Z,16.93
2019-03-20T18:44:09.677Z,18.20
2019-03-20T18:46:39.374Z,14.57
2019-03-20T18:49:12.576Z,21.50
2019-03-20T18:51:42.610Z,17.47
2019-03-20T18:54:12.747Z,18.37
2019-03-20T18:56:46.980Z,15.83
2019-03-20T20:33:15.791Z,22.20
2019-03-20T20:35:45.297Z,25.63
2019-03-20T20:38:14.878Z,24.07
2019-03-20T20:40:44.597Z,21.67
2019-03-20T20:43:14.206Z,24.63
2019-03-20T20:45:43.839Z,22.63
2019-03-20T20:48:13.505Z,21.50
2019-03-20T20:50:43.035Z,23.30
2019-03-20T20:53:12.687Z,23.73
2019-03-20T20:55:42.318Z,20.40
2019-03-20T20:58:12.030Z,23.37
2019-03-20T21:00:41.662Z,25.77
2019-03-20T21:03:11.247Z,23.83
2019-03-20T21:05:40.818Z,22.33
2019-03-20T21:08:10.426Z,25.57
2019-03-20T21:10:40.040Z,25.80
2019-03-20T21:13:09.749Z,27.50
2019-03-20T21:15:44.542Z,22.77
2019-03-20T21:19:16.798Z,22.80
2019-03-20T21:22:42.501Z,23.70
2019-03-20T21:25:12.865Z,24.73
2019-03-20T21:28:21.854Z,23.73
2019-03-20T21:31:18.347Z,24.07
2019-03-20T21:34:15.950Z,25.73
2019-03-20T21:37:47.643Z,24.83
2019-03-20T21:40:19.092Z,27.50
2019-03-20T21:43:25.676Z,24.47
2019-03-20T21:46:45.029Z,22.40
2019-03-20T21:49:15.111Z,24.33
2019-03-20T21:51:45.081Z,26.30
2019-03-20T21:54:54.542Z,28.33
2019-03-20T21:58:02.715Z,25.57
2019-03-20T22:01:09.075Z,26.20
2019-03-20T22:03:39.310Z,29.00
2019-03-20T22:06:56.196Z,26.83
2019-03-20T22:10:11.326Z,28.00
2019-03-20T22:12:59.415Z,27.80
2019-03-20T22:15:44.471Z,30.70
2019-03-20T22:18:36.135Z,28.07
2019-03-20T22:21:37.455Z,30.50
2019-03-20T22:24:49.136Z,24.77
2019-03-20T22:28:02.636Z,37.00
2019-03-20T22:30:32.603Z,30.30
2019-03-20T22:33:37.931Z,30.50
2019-03-20T22:36:14.620Z,32.70
2019-03-20T22:39:24.781Z,33.33
2019-03-20T22:42:22.012Z,32.67
2019-03-20T22:45:02.269Z,34.07
2019-03-20T22:47:58.500Z,35.13
2019-03-20T22:50:44.531Z,35.70
2019-03-20T22:53:51.073Z,34.00
2019-03-20T22:57:02.910Z,39.37
2019-03-20T22:59:32.847Z,38.47
2019-03-20T23:02:19.355Z,40.87
2019-03-20T23:04:55.347Z,36.80
2019-03-20T23:07:25.333Z,37.37
2019-03-20T23:09:55.331Z,37.53
2019-03-20T23:12:25.419Z,36.40
2019-03-20T23:14:55.482Z,40.00
2019-03-20T23:17:25.450Z,36.47
2019-03-20T23:19:56.539Z,40.73
2019-03-20T23:22:26.484Z,43.27
2019-03-20T23:24:56.435Z,38.70
2019-03-20T23:27:31.045Z,41.87
2019-03-20T23:30:01.709Z,40.13
2019-03-20T23:32:32.021Z,41.30
2019-03-20T23:35:01.972Z,42.27
2019-03-20T23:37:31.913Z,38.57
2019-03-20T23:40:01.846Z,41.87
2019-03-20T23:42:31.875Z,41.13
2019-03-20T23:45:01.838Z,40.27
2019-03-20T23:48:01.232Z,42.83
2019-03-20T23:50:31.184Z,39.27
2019-03-20T23:53:01.276Z,39.40
2019-03-20T23:55:31.293Z,40.53
2019-03-20T23:58:01.302Z,36.97
